Time;durP1;ratioP1;P1;durP2;ratioP2;P2;SDS_P1;SDS_P2;PMS_P1;PMS_P2;Temp;Humidity;BMP_temperature;BMP_pressure;BME280_temperature;BME280_humidity;BME280_pressure;Samples;Min_cycle;Max_cycle;Signal;HPM_P1;HPM_P2
2021/11/14 00:02:14;;;;;;;;;156.00;151.50;10.40;68.90;;;;;;5054784;28;9642;-68
2021/11/14 00:04:42;;;;;;;;;167.50;159.25;10.30;69.40;;;;;;5054610;28;8776;-67
2021/11/14 00:07:08;;;;;;;;;156.75;151.50;10.10;70.20;;;;;;5054290;28;8784;-67
2021/11/14 00:09:34;;;;;;;;;160.75;151.25;10.10;70.10;;;;;;5054311;28;8779;-68
2021/11/14 00:12:00;;;;;;;;;158.75;155.25;9.90;71.00;;;;;;5054497;28;9458;-67
2021/11/14 00:14:26;;;;;;;;;147.25;143.25;10.10;70.00;;;;;;5054619;28;8772;-67
2021/11/14 00:16:52;;;;;;;;;156.00;148.75;10.20;69.80;;;;;;5054225;28;9500;-67
2021/11/14 00:19:18;;;;;;;;;154.50;150.00;9.90;70.20;;;;;;5054508;28;8771;-67
2021/11/14 00:21:44;;;;;;;;;158.00;151.00;9.80;70.80;;;;;;5054265;28;8822;-67
2021/11/14 00:24:12;;;;;;;;;152.00;147.75;9.90;70.60;;;;;;5054242;28;8768;-67
2021/11/14 00:26:40;;;;;;;;;163.25;158.25;9.90;70.60;;;;;;5053275;28;8796;-67
2021/11/14 00:29:06;;;;;;;;;154.75;151.75;9.80;71.00;;;;;;5044744;28;9429;-67
2021/11/14 00:31:34;;;;;;;;;155.75;148.00;9.70;71.40;;;;;;5042859;28;8798;-68
2021/11/14 00:34:01;;;;;;;;;151.25;148.25;9.90;71.10;;;;;;5040622;28;8808;-67
2021/11/14 00:36:30;;;;;;;;;146.25;143.75;10.20;70.00;;;;;;5037585;28;8849;-68
2021/11/14 00:38:57;;;;;;;;;160.00;148.25;10.40;69.00;;;;;;5045812;28;8771;-68
2021/11/14 00:41:24;;;;;;;;;147.25;145.50;10.50;68.20;;;;;;5039173;28;8756;-68
2021/11/14 00:43:51;;;;;;;;;152.75;146.25;10.40;68.40;;;;;;5038507;28;8814;-68
2021/11/14 00:46:17;;;;;;;;;162.25;156.25;10.30;68.80;;;;;;5034102;28;8758;-68
2021/11/14 00:48:44;;;;;;;;;162.25;157.25;10.00;70.00;;;;;;5034133;28;8763;-68
2021/11/14 00:51:17;;;;;;;;;152.50;149.00;10.00;70.20;;;;;;5037451;28;8780;-67
2021/11/14 00:53:43;;;;;;;;;160.50;153.50;9.90;70.30;;;;;;5025792;28;8813;-67
2021/11/14 00:56:09;;;;;;;;;167.25;164.00;9.90;70.60;;;;;;5045291;28;8787;-67
2021/11/14 00:58:35;;;;;;;;;166.75;155.00;9.90;70.30;;;;;;5042914;28;8805;-67
2021/11/14 01:01:01;;;;;;;;;166.50;161.25;10.00;70.00;;;;;;5050307;28;8804;-68
2021/11/14 01:03:28;;;;;;;;;147.50;143.75;10.10;69.30;;;;;;5034455;28;8844;-68
2021/11/14 01:05:54;;;;;;;;;144.25;141.50;10.20;68.60;;;;;;5046337;28;8902;-67
2021/11/14 01:08:20;;;;;;;;;148.25;144.00;10.50;68.50;;;;;;5035404;28;8782;-67
2021/11/14 01:10:50;;;;;;;;;151.75;145.25;10.40;67.70;;;;;;5037570;28;8785;-67
2021/11/14 01:13:16;;;;;;;;;155.00;152.25;10.60;67.20;;;;;;5042704;28;8814;-67
2021/11/14 01:15:44;;;;;;;;;162.00;160.75;10.40;66.90;;;;;;5044445;28;9428;-67
2021/11/14 01:18:11;;;;;;;;;164.50;152.75;10.40;67.10;;;;;;5020127;28;8830;-67
2021/11/14 01:20:40;;;;;;;;;158.00;146.25;10.50;66.80;;;;;;5037572;28;8884;-67
2021/11/14 01:23:08;;;;;;;;;155.50;153.50;10.60;66.40;;;;;;5041491;28;8911;-67
2021/11/14 01:25:34;;;;;;;;;159.00;147.75;10.70;65.80;;;;;;5047064;28;8807;-67
2021/11/14 01:28:00;;;;;;;;;154.00;144.50;10.60;65.80;;;;;;5052495;28;8765;-67
2021/11/14 01:30:29;;;;;;;;;146.25;142.00;10.50;66.20;;;;;;5053197;28;8760;-67
2021/11/14 01:32:57;;;;;;;;;152.75;149.25;10.40;66.90;;;;;;5054016;28;8800;-67
2021/11/14 01:35:24;;;;;;;;;152.50;149.75;10.40;66.70;;;;;;5057395;28;8784;-67
2021/11/14 01:37:52;;;;;;;;;146.50;138.25;10.60;66.70;;;;;;5047109;28;8864;-67
2021/11/14 01:40:23;;;;;;;;;144.50;141.00;10.80;65.40;;;;;;5037264;28;8758;-67
2021/11/14 01:42:49;;;;;;;;;140.50;134.25;10.70;65.30;;;;;;5037754;28;8841;-67
2021/11/14 01:45:15;;;;;;;;;143.75;141.00;10.60;65.60;;;;;;5051647;28;8757;-68
2021/11/14 01:47:41;;;;;;;;;143.75;141.75;10.50;66.00;;;;;;5054936;28;8777;-67
2021/11/14 01:50:12;;;;;;;;;135.00;134.75;10.50;66.00;;;;;;5052109;28;8765;-67
2021/11/14 01:52:39;;;;;;;;;148.25;144.00;10.40;66.60;;;;;;5055961;28;9442;-67
2021/11/14 01:55:06;;;;;;;;;136.25;131.00;10.10;66.80;;;;;;5052548;28;8764;-67
2021/11/14 01:57:32;;;;;;;;;150.50;143.50;10.30;66.80;;;;;;5052136;28;8780;-67
2021/11/14 01:59:58;;;;;;;;;135.75;132.75;10.50;66.10;;;;;;5037833;28;8887;-67
2021/11/14 02:02:24;;;;;;;;;134.00;131.25;10.40;66.00;;;;;;5055389;28;8744;-68
2021/11/14 02:04:51;;;;;;;;;132.00;129.75;10.40;65.80;;;;;;5051283;28;8784;-67
2021/11/14 02:07:18;;;;;;;;;139.50;136.50;10.30;66.00;;;;;;5053844;28;8881;-67
2021/11/14 02:09:45;;;;;;;;;133.00;127.00;10.40;65.30;;;;;;5033334;28;8765;-67
2021/11/14 02:12:11;;;;;;;;;145.75;140.25;10.60;65.00;;;;;;5055295;28;9285;-67
2021/11/14 02:14:38;;;;;;;;;143.00;138.50;10.50;65.00;;;;;;5055520;28;8799;-67
2021/11/14 02:17:05;;;;;;;;;146.00;142.00;10.50;65.40;;;;;;5055028;28;8780;-67
2021/11/14 02:19:31;;;;;;;;;140.50;133.50;10.40;65.30;;;;;;5054082;28;8776;-67
2021/11/14 02:21:57;;;;;;;;;156.25;150.00;10.60;64.80;;;;;;5056350;28;8841;-68
2021/11/14 02:24:22;;;;;;;;;162.75;155.75;10.60;64.70;;;;;;5056346;28;8768;-67
2021/11/14 02:26:48;;;;;;;;;149.25;146.75;10.80;64.10;;;;;;5056344;28;8957;-67
2021/11/14 02:29:15;;;;;;;;;134.00;129.00;10.90;63.50;;;;;;5056212;28;8783;-67
2021/11/14 02:31:42;;;;;;;;;155.00;143.75;10.80;64.00;;;;;;5056237;28;8841;-67
2021/11/14 02:34:08;;;;;;;;;149.75;145.75;10.70;64.10;;;;;;5056473;28;8792;-67
2021/11/14 02:36:34;;;;;;;;;156.00;151.75;10.60;64.20;;;;;;5056141;28;9437;-68
2021/11/14 02:39:00;;;;;;;;;167.50;162.25;10.80;63.70;;;;;;5056147;28;8768;-67
2021/11/14 02:41:26;;;;;;;;;180.50;167.25;10.90;64.40;;;;;;5056249;28;9507;-67
2021/11/14 02:43:54;;;;;;;;;146.25;140.75;10.60;64.10;;;;;;5055849;28;8803;-68
2021/11/14 02:46:20;;;;;;;;;154.50;151.50;10.50;65.10;;;;;;5055939;28;8768;-67
2021/11/14 02:48:47;;;;;;;;;149.25;144.00;10.50;64.70;;;;;;5055907;28;8779;-68
2021/11/14 02:51:23;;;;;;;;;161.75;158.75;10.40;64.90;;;;;;5055832;28;8776;-67
2021/11/14 02:53:50;;;;;;;;;201.75;191.00;10.60;64.50;;;;;;5038245;28;8795;-68
2021/11/14 02:56:16;;;;;;;;;203.50;196.75;10.70;64.00;;;;;;5055605;28;8807;-67
2021/11/14 02:58:43;;;;;;;;;179.00;170.00;10.50;64.20;;;;;;5038037;28;8776;-68
2021/11/14 03:01:14;;;;;;;;;183.75;173.25;10.20;65.20;;;;;;5055614;28;8781;-67
2021/11/14 03:03:40;;;;;;;;;169.00;159.75;10.20;65.50;;;;;;5055727;28;8788;-68
2021/11/14 03:06:09;;;;;;;;;150.50;141.00;10.20;65.40;;;;;;5055479;28;8756;-68
2021/11/14 03:08:35;;;;;;;;;150.50;143.25;10.20;65.20;;;;;;5055796;28;8774;-68
2021/11/14 03:11:01;;;;;;;;;142.25;136.25;10.40;65.00;;;;;;5055523;28;8783;-68
2021/11/14 03:13:27;;;;;;;;;139.50;138.00;10.20;65.30;;;;;;5055812;28;8903;-67
2021/11/14 03:15:58;;;;;;;;;146.50;144.50;10.10;65.70;;;;;;5055299;28;8761;-67
2021/11/14 03:18:25;;;;;;;;;142.75;136.75;10.10;65.60;;;;;;5055535;28;8756;-67
2021/11/14 03:20:53;;;;;;;;;123.00;121.75;10.10;65.50;;;;;;5055577;28;8795;-68
2021/11/14 03:23:23;;;;;;;;;134.75;131.50;9.90;66.40;;;;;;5055258;28;8801;-67
2021/11/14 03:25:50;;;;;;;;;141.50;134.25;10.00;65.80;;;;;;5055488;28;8894;-67
2021/11/14 03:28:16;;;;;;;;;137.00;135.00;10.00;65.80;;;;;;5055077;28;8895;-67
2021/11/14 03:30:43;;;;;;;;;135.00;131.00;10.00;65.60;;;;;;5055095;28;8845;-67
2021/11/14 03:33:12;;;;;;;;;111.25;111.00;9.80;65.80;;;;;;5054338;28;9442;-67
2021/11/14 03:35:47;;;;;;;;;116.75;111.00;9.90;65.90;;;;;;5055268;28;8768;-67
2021/11/14 03:38:14;;;;;;;;;101.50;99.50;9.90;65.70;;;;;;5054943;28;8776;-67
2021/11/14 03:40:40;;;;;;;;;125.75;123.00;9.90;65.90;;;;;;5054901;28;8784;-67
2021/11/14 03:43:08;;;;;;;;;116.00;110.75;9.90;65.70;;;;;;5055209;28;8815;-67
2021/11/14 03:45:34;;;;;;;;;132.25;129.50;10.10;65.30;;;;;;5054460;28;8756;-67
2021/11/14 03:48:00;;;;;;;;;140.00;136.75;10.20;64.70;;;;;;5054873;28;8845;-67
2021/11/14 03:50:27;;;;;;;;;143.25;138.25;10.00;65.20;;;;;;5054798;28;8780;-66
2021/11/14 03:52:53;;;;;;;;;126.00;122.00;9.90;65.40;;;;;;5054950;28;8764;-66
2021/11/14 03:55:19;;;;;;;;;129.50;126.00;10.10;64.70;;;;;;5054696;28;8768;-68
2021/11/14 03:57:46;;;;;;;;;123.00;118.00;10.20;64.10;;;;;;5054816;28;8798;-67
2021/11/14 04:00:17;;;;;;;;;120.50;115.50;9.80;65.30;;;;;;5054535;28;9468;-68
2021/11/14 04:02:44;;;;;;;;;116.00;113.75;9.70;66.00;;;;;;5054569;28;8744;-68
2021/11/14 04:05:11;;;;;;;;;113.25;111.25;9.70;66.10;;;;;;5054883;28;9382;-66
2021/11/14 04:07:37;;;;;;;;;125.75;119.00;9.90;65.50;;;;;;5054728;28;8764;-66
2021/11/14 04:10:05;;;;;;;;;173.00;167.50;9.90;64.90;;;;;;5054700;28;8792;-66
2021/11/14 04:12:31;;;;;;;;;186.75;173.00;9.80;65.00;;;;;;5054618;28;8812;-67
2021/11/14 04:14:57;;;;;;;;;168.75;163.00;9.80;65.10;;;;;;5054425;28;8768;-66
2021/11/14 04:17:23;;;;;;;;;165.00;155.25;9.90;64.70;;;;;;5054510;28;8804;-66
2021/11/14 04:19:49;;;;;;;;;171.75;161.75;9.80;64.90;;;;;;5054452;28;9546;-66
2021/11/14 04:22:15;;;;;;;;;175.00;169.00;9.60;65.70;;;;;;5054574;28;8780;-66
2021/11/14 04:24:42;;;;;;;;;192.75;183.25;9.70;65.40;;;;;;5054204;28;8796;-67
2021/11/14 04:27:08;;;;;;;;;213.75;206.25;9.70;65.20;;;;;;5054236;28;8787;-66
2021/11/14 04:29:34;;;;;;;;;238.75;220.25;9.80;64.80;;;;;;5054751;28;8862;-66
2021/11/14 04:31:59;;;;;;;;;236.75;225.75;9.90;64.60;;;;;;5054082;28;9422;-66
2021/11/14 04:34:25;;;;;;;;;231.25;220.00;9.90;64.40;;;;;;5054189;28;9414;-66
2021/11/14 04:36:51;;;;;;;;;239.50;228.00;9.80;64.60;;;;;;5054241;28;8808;-66
2021/11/14 04:39:17;;;;;;;;;238.25;229.00;9.80;64.40;;;;;;5054142;28;8768;-66
2021/11/14 04:41:43;;;;;;;;;227.75;220.00;9.60;64.90;;;;;;5053982;28;8791;-67
2021/11/14 04:44:09;;;;;;;;;207.50;189.25;9.40;65.60;;;;;;5055273;28;8775;-67
2021/11/14 04:46:35;;;;;;;;;195.25;189.75;9.70;65.30;;;;;;5058339;28;8757;-66
2021/11/14 04:49:00;;;;;;;;;197.75;186.75;9.70;65.30;;;;;;5058240;28;8761;-66
2021/11/14 04:51:26;;;;;;;;;180.75;175.50;9.60;65.60;;;;;;5057960;28;8768;-66
2021/11/14 04:53:52;;;;;;;;;173.75;161.00;9.70;65.20;;;;;;5058270;28;8772;-66
2021/11/14 04:56:18;;;;;;;;;161.25;155.50;9.70;65.30;;;;;;5057997;28;9164;-66
2021/11/14 04:58:45;;;;;;;;;176.00;171.50;9.80;64.90;;;;;;5057964;28;8780;-66
2021/11/14 05:01:11;;;;;;;;;189.25;185.50;9.60;65.50;;;;;;5057871;28;8780;-66
2021/11/14 05:03:37;;;;;;;;;177.50;165.25;9.40;65.90;;;;;;5057829;28;8798;-67
2021/11/14 05:06:04;;;;;;;;;156.75;151.50;9.30;66.40;;;;;;5057802;28;8768;-66
2021/11/14 05:08:30;;;;;;;;;175.50;169.00;9.10;67.10;;;;;;5058001;28;8772;-66
2021/11/14 05:10:56;;;;;;;;;179.50;166.50;9.00;67.50;;;;;;5057761;28;9421;-66
2021/11/14 05:13:22;;;;;;;;;189.00;183.25;9.20;67.00;;;;;;5058034;28;8787;-66
2021/11/14 05:15:48;;;;;;;;;190.50;177.50;9.30;66.60;;;;;;5057640;28;8777;-66
2021/11/14 05:18:14;;;;;;;;;196.25;186.75;9.30;66.80;;;;;;5057555;28;8804;-66
2021/11/14 05:20:40;;;;;;;;;178.75;168.50;9.50;65.80;;;;;;5057604;28;8776;-67
2021/11/14 05:23:06;;;;;;;;;165.75;163.75;9.60;65.60;;;;;;5057503;28;8787;-67
2021/11/14 05:25:32;;;;;;;;;166.25;160.25;9.50;66.00;;;;;;5057687;28;8780;-67
2021/11/14 05:27:58;;;;;;;;;167.25;161.00;9.40;65.80;;;;;;5057339;28;8795;-67
2021/11/14 05:30:24;;;;;;;;;151.50;137.50;9.30;65.90;;;;;;5057573;28;8772;-67
2021/11/14 05:32:49;;;;;;;;;154.00;141.25;9.30;66.50;;;;;;5057246;28;9550;-67
2021/11/14 05:35:16;;;;;;;;;123.75;122.75;9.10;66.80;;;;;;5057181;28;9401;-67
2021/11/14 05:37:42;;;;;;;;;126.75;122.00;9.30;66.20;;;;;;5057177;28;8804;-67
2021/11/14 05:40:09;;;;;;;;;153.25;151.00;9.40;66.70;;;;;;5047828;28;8747;-67
2021/11/14 05:42:35;;;;;;;;;181.50;174.00;9.50;65.00;;;;;;5038012;28;8810;-67
2021/11/14 05:45:02;;;;;;;;;170.25;167.00;9.70;64.40;;;;;;5055217;28;8881;-67
2021/11/14 05:47:28;;;;;;;;;187.50;181.00;9.30;65.30;;;;;;5038271;28;8782;-67
2021/11/14 05:49:54;;;;;;;;;193.75;184.75;9.40;65.40;;;;;;5038044;28;8778;-67
2021/11/14 05:52:20;;;;;;;;;219.00;207.00;9.10;66.30;;;;;;5056989;28;8865;-67
2021/11/14 05:54:46;;;;;;;;;215.75;203.75;9.20;65.70;;;;;;5056369;28;8776;-67
2021/11/14 05:57:12;;;;;;;;;221.75;207.50;9.30;65.50;;;;;;5051890;28;8810;-66
2021/11/14 06:00:14;;;;;;;;;176.75;170.25;9.20;66.00;;;;;;5037062;28;8771;-66
2021/11/14 06:05:11;;;;;;;;;184.50;179.75;9.40;65.20;;;;;;5036872;28;8778;-67
2021/11/14 06:07:37;;;;;;;;;154.25;145.25;9.60;64.60;;;;;;5036986;28;8794;-67
2021/11/14 06:10:05;;;;;;;;;123.00;120.75;9.70;64.30;;;;;;5036978;28;9494;-67
2021/11/14 06:12:31;;;;;;;;;101.00;98.25;9.60;64.60;;;;;;5036763;28;8829;-67
2021/11/14 06:14:57;;;;;;;;;78.75;63.00;9.70;64.90;;;;;;5036840;28;9436;-67
2021/11/14 06:17:24;;;;;;;;;109.50;104.75;9.40;65.60;;;;;;5049401;28;8796;-67
2021/11/14 06:19:50;;;;;;;;;98.50;97.75;9.30;66.20;;;;;;5056703;28;9488;-67
2021/11/14 06:22:17;;;;;;;;;100.00;97.75;9.50;65.70;;;;;;5056450;28;8764;-67
2021/11/14 06:24:45;;;;;;;;;153.75;149.25;9.70;65.20;;;;;;5056432;28;8740;-67
2021/11/14 06:27:11;;;;;;;;;185.50;177.75;9.90;64.20;;;;;;5056255;28;8768;-66
2021/11/14 06:29:37;;;;;;;;;171.50;168.50;9.80;64.50;;;;;;5056213;28;8787;-66
2021/11/14 06:32:03;;;;;;;;;170.00;158.00;9.80;64.30;;;;;;5056151;28;8808;-66
2021/11/14 06:34:29;;;;;;;;;193.75;188.75;9.80;64.30;;;;;;5056456;28;9454;-67
2021/11/14 06:36:55;;;;;;;;;226.25;211.75;9.70;64.50;;;;;;5056128;28;8811;-67
2021/11/14 06:39:21;;;;;;;;;228.75;215.00;9.90;64.30;;;;;;5056044;28;8826;-66
2021/11/14 06:41:47;;;;;;;;;219.75;213.25;9.70;64.20;;;;;;5056155;28;8771;-67
2021/11/14 06:44:13;;;;;;;;;185.75;180.50;9.70;64.90;;;;;;5055972;28;9399;-66
2021/11/14 06:46:39;;;;;;;;;168.25;161.00;9.80;64.70;;;;;;5055884;28;8857;-66
2021/11/14 06:49:05;;;;;;;;;123.50;118.50;10.00;64.60;;;;;;5055962;28;8781;-66
2021/11/14 06:51:31;;;;;;;;;107.25;104.75;10.10;64.60;;;;;;5055714;28;8783;-67
2021/11/14 06:53:57;;;;;;;;;106.75;104.75;10.10;64.10;;;;;;5038233;28;8776;-66
2021/11/14 06:56:24;;;;;;;;;116.00;111.75;9.80;65.30;;;;;;5055952;28;8858;-67
2021/11/14 06:58:50;;;;;;;;;110.75;105.25;9.90;66.00;;;;;;5055775;28;8853;-67
2021/11/14 07:01:16;;;;;;;;;92.25;87.25;10.00;64.70;;;;;;5055639;28;8768;-66
2021/11/14 07:03:42;;;;;;;;;96.25;91.75;9.50;66.20;;;;;;5055672;28;8941;-66
2021/11/14 07:06:08;;;;;;;;;101.25;99.00;9.30;67.40;;;;;;5055075;28;8859;-66
2021/11/14 07:08:34;;;;;;;;;91.00;84.75;9.60;66.80;;;;;;5053359;28;8761;-66
2021/11/14 07:11:00;;;;;;;;;96.00;91.25;9.60;66.70;;;;;;5044144;28;8786;-66
2021/11/14 07:13:27;;;;;;;;;89.50;82.50;9.60;66.80;;;;;;5035784;28;8810;-66
2021/11/14 07:15:53;;;;;;;;;97.25;96.00;9.70;66.60;;;;;;5041495;28;9506;-66
2021/11/14 07:18:19;;;;;;;;;91.75;85.25;9.80;66.20;;;;;;5055135;28;8808;-66
2021/11/14 07:20:45;;;;;;;;;94.00;90.25;10.10;65.40;;;;;;5035367;28;8805;-66
2021/11/14 07:23:11;;;;;;;;;89.50;82.75;9.80;66.30;;;;;;5035406;28;8832;-66
2021/11/14 07:25:36;;;;;;;;;90.00;85.50;9.70;67.10;;;;;;5035527;28;8786;-66
2021/11/14 07:28:03;;;;;;;;;86.75;76.50;9.90;66.70;;;;;;5035180;28;8925;-66
2021/11/14 07:30:29;;;;;;;;;84.25;73.25;10.20;65.60;;;;;;5035066;28;8770;-66
2021/11/14 07:32:55;;;;;;;;;82.50;72.00;9.80;66.80;;;;;;5035012;28;8826;-66
2021/11/14 07:35:23;;;;;;;;;86.75;80.75;9.70;67.40;;;;;;5035155;28;8794;-66
2021/11/14 07:37:49;;;;;;;;;92.50;86.25;9.80;67.40;;;;;;5035067;28;8887;-66
2021/11/14 07:40:18;;;;;;;;;112.75;111.50;10.40;65.50;;;;;;5035125;28;9490;-67
2021/11/14 07:42:45;;;;;;;;;87.75;79.25;10.70;64.10;;;;;;5035213;28;8786;-66
2021/11/14 07:45:13;;;;;;;;;117.00;115.25;11.00;63.20;;;;;;5034867;28;8755;-66
2021/11/14 07:47:39;;;;;;;;;127.00;122.25;10.60;64.60;;;;;;5034720;28;8809;-67
2021/11/14 07:50:06;;;;;;;;;111.00;103.00;10.30;65.50;;;;;;5035027;28;8766;-66
2021/11/14 07:52:32;;;;;;;;;83.25;74.75;10.40;65.30;;;;;;5034919;28;8786;-67
2021/11/14 07:54:58;;;;;;;;;102.00;98.75;10.20;66.20;;;;;;5034809;28;8770;-66
2021/11/14 07:57:25;;;;;;;;;119.25;110.00;10.30;65.90;;;;;;5034619;28;8830;-67
2021/11/14 07:59:51;;;;;;;;;91.25;85.75;10.50;65.50;;;;;;5034681;28;8779;-67
2021/11/14 08:02:17;;;;;;;;;91.00;85.75;10.30;66.00;;;;;;5034950;28;8796;-67
2021/11/14 08:04:44;;;;;;;;;84.00;76.25;10.80;65.30;;;;;;5034815;28;8774;-65
2021/11/14 08:07:09;;;;;;;;;86.50;79.50;10.50;65.60;;;;;;5034832;28;8754;-66
2021/11/14 08:09:36;;;;;;;;;77.25;62.25;10.40;66.60;;;;;;5034639;28;9397;-66
2021/11/14 08:12:02;;;;;;;;;75.75;62.50;10.40;66.40;;;;;;5034480;28;8810;-65
2021/11/14 08:14:28;;;;;;;;;74.25;60.25;10.20;67.10;;;;;;5034569;28;8781;-67
2021/11/14 08:16:54;;;;;;;;;78.25;67.25;10.40;66.30;;;;;;5034280;28;8813;-66
2021/11/14 08:19:20;;;;;;;;;74.25;60.00;10.40;66.30;;;;;;5034422;28;8778;-67
2021/11/14 08:21:46;;;;;;;;;73.00;60.25;10.60;65.40;;;;;;5034397;28;8790;-66
2021/11/14 08:24:11;;;;;;;;;73.50;60.50;10.40;66.30;;;;;;5034582;28;8797;-65
2021/11/14 08:26:37;;;;;;;;;75.00;62.75;10.30;66.80;;;;;;5034424;28;9381;-65
2021/11/14 08:29:03;;;;;;;;;72.00;59.00;10.40;67.30;;;;;;5034287;28;8778;-66
2021/11/14 08:31:29;;;;;;;;;79.75;64.25;10.60;66.70;;;;;;5034154;28;8814;-66
2021/11/14 08:33:55;;;;;;;;;59.75;50.25;10.60;66.90;;;;;;5034280;28;8774;-66
2021/11/14 08:36:21;;;;;;;;;85.75;79.75;11.00;65.30;;;;;;5016739;28;8794;-67
2021/11/14 08:38:47;;;;;;;;;81.25;72.50;10.80;65.50;;;;;;5034231;28;9463;-66
2021/11/14 08:41:14;;;;;;;;;82.50;72.25;11.20;64.90;;;;;;5034125;28;8790;-66
2021/11/14 08:43:41;;;;;;;;;83.25;77.50;11.10;64.70;;;;;;5034559;28;8814;-66
2021/11/14 08:46:08;;;;;;;;;80.50;72.50;11.30;64.60;;;;;;5034104;28;8766;-66
2021/11/14 08:48:34;;;;;;;;;86.50;84.50;11.20;65.20;;;;;;5034328;28;8877;-66
2021/11/14 08:51:00;;;;;;;;;87.75;87.75;11.40;64.90;;;;;;5033988;28;8770;-66
2021/11/14 08:53:26;;;;;;;;;83.00;74.75;11.50;64.00;;;;;;5034057;28;8797;-66
2021/11/14 08:55:57;;;;;;;;;80.00;69.50;11.40;64.20;;;;;;5034202;28;8778;-66
2021/11/14 08:58:23;;;;;;;;;74.75;63.75;11.30;64.20;;;;;;5034510;28;8814;-66
2021/11/14 09:00:49;;;;;;;;;79.00;70.50;11.20;64.50;;;;;;5033875;28;8771;-66
2021/11/14 09:03:15;;;;;;;;;80.50;73.00;11.10;65.30;;;;;;5034279;28;9484;-66
2021/11/14 09:05:41;;;;;;;;;82.00;74.00;11.20;65.30;;;;;;5017390;28;8802;-66
2021/11/14 09:08:07;;;;;;;;;80.00;71.00;11.30;64.80;;;;;;5048712;28;8796;-68
2021/11/14 09:10:35;;;;;;;;;84.00;80.00;11.70;64.90;;;;;;5054153;28;8772;-68
2021/11/14 09:13:01;;;;;;;;;80.50;69.75;11.70;64.00;;;;;;5039898;28;8814;-68
2021/11/14 09:15:29;;;;;;;;;83.00;69.75;11.60;64.30;;;;;;5033885;28;8801;-67
2021/11/14 09:18:00;;;;;;;;;82.75;73.00;11.80;64.20;;;;;;5047466;28;8796;-65
2021/11/14 09:20:26;;;;;;;;;78.75;69.50;11.90;63.50;;;;;;5036118;28;8789;-68
2021/11/14 09:22:52;;;;;;;;;77.50;71.25;11.90;63.30;;;;;;5033835;28;8793;-68
2021/11/14 09:25:20;;;;;;;;;75.25;64.50;12.00;63.70;;;;;;5033791;28;8782;-67
2021/11/14 09:27:46;;;;;;;;;80.75;76.25;12.00;62.80;;;;;;5033703;28;8778;-68
2021/11/14 09:30:12;;;;;;;;;76.25;62.50;12.20;63.70;;;;;;5034673;28;8785;-68
2021/11/14 09:32:39;;;;;;;;;72.00;62.75;12.50;61.90;;;;;;5037152;28;9465;-69
2021/11/14 09:35:05;;;;;;;;;77.75;69.00;12.90;60.90;;;;;;5037140;28;8901;-68
2021/11/14 09:37:31;;;;;;;;;70.75;57.25;13.10;60.90;;;;;;5037218;28;8920;-69
2021/11/14 09:39:57;;;;;;;;;72.00;59.00;13.20;59.70;;;;;;5037623;28;8774;-68
2021/11/14 09:42:28;;;;;;;;;60.50;51.00;13.10;58.50;;;;;;5037459;28;9520;-69
2021/11/14 09:44:55;;;;;;;;;72.50;60.25;12.90;59.00;;;;;;5037253;28;8763;-63
2021/11/14 09:47:21;;;;;;;;;66.00;54.00;13.20;58.40;;;;;;5048539;28;8898;-70
2021/11/14 09:49:47;;;;;;;;;67.75;56.25;13.20;58.90;;;;;;5049626;28;8792;-69
2021/11/14 09:52:13;;;;;;;;;71.50;58.50;13.70;57.10;;;;;;5057092;28;8764;-68
2021/11/14 09:54:40;;;;;;;;;64.25;52.75;14.00;56.10;;;;;;5056928;28;9437;-70
2021/11/14 09:57:07;;;;;;;;;64.25;54.00;14.40;53.70;;;;;;5039942;28;8832;-69
2021/11/14 09:59:33;;;;;;;;;68.00;55.25;14.50;53.70;;;;;;5037192;28;8781;-73
2021/11/14 10:02:02;;;;;;;;;64.50;53.25;15.60;51.70;;;;;;5039272;28;8768;-69
2021/11/14 10:04:28;;;;;;;;;63.00;51.50;17.70;47.80;;;;;;5045653;28;8801;-75
2021/11/14 10:06:55;;;;;;;;;62.33;50.00;19.10;43.70;;;;;;5046349;28;8800;-65
2021/11/14 10:09:29;;;;;;;;;57.33;47.00;20.80;40.60;;;;;;5038392;28;8875;-65
2021/11/14 10:11:55;;;;;;;;;57.00;47.33;23.00;36.20;;;;;;5046685;28;8912;-64
2021/11/14 10:14:23;;;;;;;;;56.33;46.67;24.20;33.00;;;;;;5056874;28;8938;-67
2021/11/14 10:16:49;;;;;;;;;55.67;46.67;26.40;30.80;;;;;;5056452;28;8804;-66
2021/11/14 10:19:15;;;;;;;;;55.33;46.33;26.70;29.60;;;;;;5056537;28;8753;-68
2021/11/14 10:21:45;;;;;;;;;54.00;45.67;28.00;28.40;;;;;;5056314;28;8800;-66
2021/11/14 10:24:12;;;;;;;;;53.33;44.67;27.90;27.20;;;;;;5056622;28;9449;-66
2021/11/14 10:26:38;;;;;;;;;55.67;46.33;26.20;29.10;;;;;;5056283;28;8795;-66
2021/11/14 10:29:07;;;;;;;;;57.33;47.33;25.20;30.00;;;;;;5056278;28;8799;-66
2021/11/14 10:31:36;;;;;;;;;58.33;48.00;26.10;30.00;;;;;;5056443;28;8799;-64
2021/11/14 10:34:02;;;;;;;;;48.00;41.00;27.00;28.90;;;;;;5056490;28;9500;-64
2021/11/14 10:36:30;;;;;;;;;59.33;49.00;27.70;27.80;;;;;;5056155;28;8766;-64
2021/11/14 10:39:11;;;;;;;;;48.67;41.00;28.70;27.00;;;;;;5056318;28;8872;-65
2021/11/14 10:41:45;;;;;;;;;49.00;41.33;30.80;24.90;;;;;;5055811;28;8782;-65
2021/11/14 10:44:18;;;;;;;;;50.67;42.00;29.00;25.60;;;;;;5056100;28;8814;-67
2021/11/14 10:46:44;;;;;;;;;54.33;46.00;26.80;27.30;;;;;;5055700;28;8775;-65
2021/11/14 10:49:11;;;;;;;;;55.00;45.67;26.40;28.90;;;;;;5038105;28;8783;-66
2021/11/14 10:51:38;;;;;;;;;53.33;45.00;26.50;28.80;;;;;;5055641;28;9489;-64
2021/11/14 10:54:05;;;;;;;;;53.33;44.67;27.30;27.70;;;;;;5055830;28;8792;-72
2021/11/14 10:56:31;;;;;;;;;55.00;46.00;26.50;28.10;;;;;;5055510;28;8913;-65
2021/11/14 10:58:57;;;;;;;;;54.00;45.00;26.00;28.60;;;;;;5055726;28;8784;-65
2021/11/14 11:01:24;;;;;;;;;53.00;45.00;25.50;29.10;;;;;;5055572;28;8837;-64
2021/11/14 11:03:52;;;;;;;;;59.67;49.67;26.50;28.60;;;;;;5055499;28;8764;-65
2021/11/14 11:06:22;;;;;;;;;60.67;50.33;27.40;27.90;;;;;;5055527;28;8772;-65
2021/11/14 11:08:49;;;;;;;;;53.00;45.00;27.80;27.60;;;;;;5055583;28;8768;-64
2021/11/14 11:11:19;;;;;;;;;57.00;48.00;28.00;26.80;;;;;;5055477;28;9430;-64
2021/11/14 11:13:48;;;;;;;;;51.67;42.67;28.30;26.60;;;;;;5055773;28;8816;-72
2021/11/14 11:16:20;;;;;;;;;51.00;43.00;27.90;26.90;;;;;;5055550;28;8767;-64
2021/11/14 11:19:03;;;;;;;;;54.33;45.00;28.10;26.90;;;;;;5055313;28;8794;-65
2021/11/14 11:21:39;;;;;;;;;52.33;43.67;30.10;25.30;;;;;;5055405;28;8795;-64
2021/11/14 11:24:15;;;;;;;;;52.00;44.00;30.20;24.80;;;;;;5037519;28;9025;-66
2021/11/14 11:27:04;;;;;;;;;57.00;47.67;29.90;25.10;;;;;;5055090;28;8768;-70
2021/11/14 11:29:33;;;;;;;;;54.67;46.00;28.40;25.90;;;;;;5054595;28;8795;-66
2021/11/14 11:31:59;;;;;;;;;52.67;44.67;27.30;26.50;;;;;;5053519;28;8819;-67
2021/11/14 11:34:26;;;;;;;;;52.33;43.67;26.60;27.80;;;;;;5036252;28;9553;-67
2021/11/14 11:36:54;;;;;;;;;52.00;43.33;27.50;27.40;;;;;;5053724;28;8854;-67
2021/11/14 11:39:20;;;;;;;;;35.33;32.00;28.20;26.80;;;;;;5053821;28;8780;-67
2021/11/14 11:41:50;;;;;;;;;52.00;43.00;28.80;25.80;;;;;;5051008;28;8838;-69
2021/11/14 11:44:18;;;;;;;;;50.33;42.33;27.20;27.00;;;;;;5053526;28;8800;-67
2021/11/14 11:46:48;;;;;;;;;57.67;48.00;26.90;27.50;;;;;;5051699;28;8800;-66
2021/11/14 11:49:27;;;;;;;;;51.00;43.67;27.30;27.10;;;;;;5055047;28;9437;-69
2021/11/14 11:51:55;;;;;;;;;48.00;41.00;27.90;26.70;;;;;;5054611;28;8773;-70
2021/11/14 11:54:26;;;;;;;;;51.67;42.67;27.20;27.00;;;;;;5054353;28;8857;-69
2021/11/14 11:57:06;;;;;;;;;52.67;44.67;28.10;26.20;;;;;;5054875;28;8825;-69
2021/11/14 11:59:44;;;;;;;;;51.00;42.33;29.90;24.70;;;;;;5054532;28;8902;-68
2021/11/14 12:02:19;;;;;;;;;50.00;43.00;29.80;24.40;;;;;;5054563;28;8788;-69
2021/11/14 12:04:52;;;;;;;;;53.33;45.00;30.40;23.90;;;;;;5054483;28;8794;-69
2021/11/14 12:07:21;;;;;;;;;54.67;45.67;29.30;24.80;;;;;;5054423;28;8786;-68
2021/11/14 12:09:53;;;;;;;;;48.33;41.33;29.90;24.30;;;;;;5054485;28;8776;-71
2021/11/14 12:12:51;;;;;;;;;52.00;44.33;30.00;23.90;;;;;;5054297;28;8768;-70
2021/11/14 12:15:27;;;;;;;;;51.33;43.33;28.50;25.40;;;;;;5054567;28;8780;-68
2021/11/14 12:17:52;;;;;;;;;48.00;41.00;28.40;25.70;;;;;;5054246;28;8808;-69
2021/11/14 12:20:24;;;;;;;;;49.67;42.00;28.20;25.50;;;;;;5054398;28;8771;-69
2021/11/14 12:22:55;;;;;;;;;48.67;41.33;28.40;24.60;;;;;;5054093;28;9456;-68
2021/11/14 12:25:38;;;;;;;;;57.33;48.00;28.60;25.00;;;;;;5054576;28;8776;-68
2021/11/14 12:28:12;;;;;;;;;54.67;45.67;29.00;24.70;;;;;;5054549;28;8853;-70
2021/11/14 12:30:44;;;;;;;;;53.33;45.00;30.30;23.70;;;;;;5054240;28;8768;-70
2021/11/14 12:33:21;;;;;;;;;47.00;40.33;30.70;23.20;;;;;;5054125;28;8910;-69